Time;durP1;ratioP1;P1;durP2;ratioP2;P2;SDS_P1;SDS_P2;PMS_P1;PMS_P2;Temp;Humidity;BMP_temperature;BMP_pressure;BME280_temperature;BME280_humidity;BME280_pressure;Samples;Min_cycle;Max_cycle;Signal;HPM_P1;HPM_P2
2024/04/12 00:02:12;;;;;;;3.97;2.17;;;;;;;14.85;44.07;102830.03;5382377;26;20018;-82
2024/04/12 00:04:41;;;;;;;3.78;2.00;;;;;;;14.83;43.76;102822.88;5375774;26;20012;-81
2024/04/12 00:07:16;;;;;;;4.60;2.20;;;;;;;14.83;43.91;102815.50;5401376;26;20076;-81
2024/04/12 00:09:52;;;;;;;4.25;1.98;;;;;;;14.83;43.66;102818.25;5359488;26;20004;-80
2024/04/12 00:12:26;;;;;;;3.67;2.00;;;;;;;14.83;43.42;102818.25;5382978;26;20514;-82
2024/04/12 00:15:01;;;;;;;4.30;2.20;;;;;;;14.83;43.82;102811.84;5337531;26;20263;-81
2024/04/12 00:17:33;;;;;;;3.60;2.00;;;;;;;14.83;44.01;102812.75;5368659;26;20014;-82
2024/04/12 00:20:01;;;;;;;3.08;1.88;;;;;;;14.84;43.86;102809.00;5350147;26;20005;-80
2024/04/12 00:22:32;;;;;;;3.40;2.03;;;;;;;14.84;43.96;102814.50;5378430;26;20012;-81
2024/04/12 00:24:59;;;;;;;3.70;1.67;;;;;;;14.82;43.88;102812.84;5386876;26;20019;-81
2024/04/12 00:27:33;;;;;;;4.00;2.00;;;;;;;14.83;43.64;102807.22;5355535;26;20451;-81
2024/04/12 00:30:03;;;;;;;4.00;1.83;;;;;;;14.83;43.68;102807.22;5377296;26;20020;-81
2024/04/12 00:32:36;;;;;;;3.50;1.95;;;;;;;14.87;44.30;102813.38;5380174;26;20000;-81
2024/04/12 00:35:11;;;;;;;3.95;1.85;;;;;;;14.85;43.65;102821.75;5344434;26;20015;-80
2024/04/12 00:37:52;;;;;;;3.20;1.90;;;;;;;14.83;43.50;102809.09;5346554;26;20376;-81
2024/04/12 00:40:21;;;;;;;3.17;1.95;;;;;;;14.81;43.92;102811.97;5350496;26;20012;-81
2024/04/12 00:42:56;;;;;;;3.10;1.70;;;;;;;14.84;43.76;102806.22;5346828;26;20008;-79
2024/04/12 00:45:39;;;;;;;3.03;1.73;;;;;;;14.84;43.96;102806.22;5369204;26;20434;-81
2024/04/12 00:48:14;;;;;;;4.45;1.80;;;;;;;14.86;43.88;102801.47;5370695;26;20049;-81
2024/04/12 00:50:43;;;;;;;3.00;1.63;;;;;;;14.85;43.75;102804.34;5387610;26;20016;-81
2024/04/12 00:53:22;;;;;;;3.05;1.88;;;;;;;14.86;43.83;102804.22;5371907;26;20367;-80
2024/04/12 00:56:00;;;;;;;2.40;1.50;;;;;;;14.87;43.68;102794.06;5347207;26;20018;-80
2024/04/12 00:58:33;;;;;;;2.92;1.55;;;;;;;14.87;43.96;102805.09;5398669;26;20452;-80
2024/04/12 01:01:10;;;;;;;4.25;1.50;;;;;;;14.86;43.74;102797.81;5346287;26;20341;-81
2024/04/12 01:03:49;;;;;;;2.97;1.65;;;;;;;14.86;44.07;102787.69;5348880;26;20456;-80
2024/04/12 01:06:17;;;;;;;4.25;1.55;;;;;;;14.86;43.54;102790.44;5380048;26;20008;-81
2024/04/12 01:08:51;;;;;;;2.55;1.30;;;;;;;14.86;43.81;102773.91;5361252;26;20005;-81
2024/04/12 01:11:20;;;;;;;2.60;1.38;;;;;;;14.88;43.68;102780.19;5385965;26;20016;-81
2024/04/12 01:13:51;;;;;;;2.25;1.40;;;;;;;14.89;43.40;102781.06;5389758;26;20380;-81
2024/04/12 01:16:19;;;;;;;2.60;1.40;;;;;;;14.88;43.46;102785.69;5338986;26;20008;-81
2024/04/12 01:18:54;;;;;;;2.33;1.20;;;;;;;14.90;43.73;102774.56;5351860;26;20001;-81
2024/04/12 01:21:23;;;;;;;2.03;1.30;;;;;;;14.88;43.71;102777.41;5378060;26;20032;-82
2024/04/12 01:23:55;;;;;;;2.10;1.30;;;;;;;14.90;43.61;102763.53;5378804;26;20086;-81
2024/04/12 01:26:25;;;;;;;3.00;1.20;;;;;;;14.91;43.67;102768.06;5395283;26;20008;-80
2024/04/12 01:28:56;;;;;;;1.95;1.20;;;;;;;14.88;43.55;102769.16;5348375;26;20017;-82
2024/04/12 01:31:27;;;;;;;2.53;1.20;;;;;;;14.89;43.82;102762.66;5354793;26;20456;-82
2024/04/12 01:34:00;;;;;;;2.92;1.42;;;;;;;14.90;43.45;102761.66;5378539;26;20468;-81
2024/04/12 01:36:28;;;;;;;1.80;1.10;;;;;;;14.91;43.72;102759.78;5350597;26;20464;-82
2024/04/12 01:38:59;;;;;;;2.15;1.30;;;;;;;14.91;43.73;102757.03;5377149;26;20005;-82
2024/04/12 01:41:31;;;;;;;3.15;1.70;;;;;;;14.94;43.78;102751.25;5359051;26;20003;-81
2024/04/12 01:44:06;;;;;;;2.30;1.20;;;;;;;14.91;43.23;102755.16;5359235;26;20004;-81
2024/04/12 01:46:34;;;;;;;2.80;1.48;;;;;;;14.91;43.34;102748.75;5392995;26;20014;-80
2024/04/12 01:49:05;;;;;;;2.97;1.25;;;;;;;14.93;43.41;102755.88;5384922;26;20509;-81
2024/04/12 01:51:34;;;;;;;2.17;1.20;;;;;;;14.94;43.51;102754.00;5383616;26;20358;-82
2024/04/12 01:54:13;;;;;;;2.20;1.20;;;;;;;14.92;43.57;102751.41;5342938;26;20015;-81
2024/04/12 01:56:47;;;;;;;2.60;1.27;;;;;;;14.95;43.94;102742.00;5396444;26;20066;-81
2024/04/12 01:59:21;;;;;;;2.85;1.80;;;;;;;14.94;43.69;102742.97;5373688;26;20071;-80
2024/04/12 02:01:48;;;;;;;1.90;1.20;;;;;;;14.93;43.73;102746.75;5362579;26;20000;-82
2024/04/12 02:04:20;;;;;;;3.22;1.45;;;;;;;14.93;43.70;102741.25;5355127;26;20711;-82
2024/04/12 02:06:48;;;;;;;2.10;1.35;;;;;;;14.92;43.78;102745.00;5354873;26;20021;-81
2024/04/12 02:09:20;;;;;;;3.60;1.50;;;;;;;14.95;44.12;102747.50;5359726;26;20012;-82
2024/04/12 02:11:53;;;;;;;2.83;1.50;;;;;;;14.97;43.63;102754.66;5391892;26;20547;-80
2024/04/12 02:14:23;;;;;;;3.50;1.55;;;;;;;14.91;43.91;102749.63;5324110;26;20009;-80
2024/04/12 02:16:50;;;;;;;3.08;1.35;;;;;;;14.93;43.69;102747.63;5369996;26;20007;-82
2024/04/12 02:19:21;;;;;;;4.25;1.50;;;;;;;14.95;43.52;102753.91;5354971;26;20082;-80
2024/04/12 02:21:50;;;;;;;2.55;1.40;;;;;;;14.94;43.64;102757.66;5337044;26;20500;-80
2024/04/12 02:24:20;;;;;;;2.85;1.33;;;;;;;14.95;43.62;102742.88;5344422;26;20009;-80
2024/04/12 02:26:50;;;;;;;2.58;1.52;;;;;;;14.95;43.90;102736.47;5397775;26;20004;-82
2024/04/12 02:29:21;;;;;;;3.80;1.58;;;;;;;14.94;43.70;102737.47;5353580;26;20015;-80
2024/04/12 02:31:50;;;;;;;2.70;1.40;;;;;;;14.93;43.85;102739.34;5370626;26;20004;-80
2024/04/12 02:34:23;;;;;;;3.00;1.70;;;;;;;14.93;43.57;102728.31;5355348;26;20005;-79
2024/04/12 02:36:50;;;;;;;2.42;1.50;;;;;;;14.93;43.97;102727.47;5361555;26;20013;-80
2024/04/12 02:39:23;;;;;;;2.50;1.38;;;;;;;14.92;43.84;102728.47;5372007;26;20022;-80
2024/04/12 02:41:54;;;;;;;2.72;1.50;;;;;;;14.95;44.02;102719.94;5362849;26;20459;-80
2024/04/12 02:44:25;;;;;;;3.67;1.55;;;;;;;14.92;43.88;102731.22;5378708;26;20015;-82
2024/04/12 02:46:53;;;;;;;3.10;1.70;;;;;;;14.91;43.91;102724.81;5358900;26;20003;-82
2024/04/12 02:49:23;;;;;;;3.00;1.67;;;;;;;14.93;43.98;102732.97;5390856;26;20008;-80
2024/04/12 02:51:53;;;;;;;3.17;1.77;;;;;;;14.93;44.16;102730.22;5354329;26;20005;-80
2024/04/12 02:54:22;;;;;;;2.70;1.75;;;;;;;14.93;44.07;102724.72;5344123;26;20005;-79
2024/04/12 02:56:56;;;;;;;2.97;1.40;;;;;;;14.92;44.18;102732.09;5365231;26;20023;-81
2024/04/12 02:59:27;;;;;;;3.83;1.60;;;;;;;14.92;43.99;102725.69;5400398;26;20007;-80
2024/04/12 03:01:54;;;;;;;2.80;1.70;;;;;;;14.92;43.92;102729.34;5395217;26;20105;-80
2024/04/12 03:04:24;;;;;;;3.88;1.60;;;;;;;14.92;44.27;102725.69;5369130;26;20022;-81
2024/04/12 03:06:52;;;;;;;3.47;1.83;;;;;;;14.91;44.47;102727.56;5357173;26;20019;-81
2024/04/12 03:09:22;;;;;;;3.15;1.48;;;;;;;14.92;44.21;102736.72;5342030;26;20009;-80
2024/04/12 03:11:50;;;;;;;3.50;1.80;;;;;;;14.91;44.16;102741.38;5374373;26;20019;-79
2024/04/12 03:14:24;;;;;;;2.67;1.65;;;;;;;14.93;44.69;102744.84;5346410;26;20000;-81
2024/04/12 03:16:51;;;;;;;3.95;1.70;;;;;;;14.90;44.06;102750.63;5348347;26;20004;-80
2024/04/12 03:19:21;;;;;;;2.72;1.60;;;;;;;14.91;44.47;102754.25;5369800;26;20385;-79
2024/04/12 03:21:50;;;;;;;2.75;1.50;;;;;;;14.89;44.49;102753.50;5336387;26;20354;-81
2024/04/12 03:24:21;;;;;;;3.35;1.70;;;;;;;14.88;44.62;102762.75;5333172;26;20137;-80
2024/04/12 03:26:48;;;;;;;2.97;1.73;;;;;;;14.87;44.64;102755.47;5371355;26;20005;-80
2024/04/12 03:29:19;;;;;;;3.85;1.77;;;;;;;14.87;44.51;102753.59;5376707;26;20023;-80
2024/04/12 03:31:50;;;;;;;3.17;1.45;;;;;;;14.88;44.71;102751.72;5345857;26;20012;-81
2024/04/12 03:34:20;;;;;;;2.95;1.85;;;;;;;14.83;44.90;102748.47;5360962;26;20019;-80
2024/04/12 03:36:53;;;;;;;3.20;1.80;;;;;;;14.84;44.91;102753.84;5346170;26;20009;-80
2024/04/12 03:39:35;;;;;;;2.88;1.50;;;;;;;14.84;45.00;102770.41;5390795;26;20000;-79
2024/04/12 03:42:06;;;;;;;4.28;1.90;;;;;;;14.83;44.81;102756.72;5375725;26;20001;-80
2024/04/12 03:44:37;;;;;;;3.47;1.88;;;;;;;14.83;44.93;102753.97;5355329;26;20015;-80
2024/04/12 03:47:08;;;;;;;4.30;1.98;;;;;;;14.85;45.49;102757.50;5405309;26;20094;-80
2024/04/12 03:49:42;;;;;;;3.60;1.90;;;;;;;14.82;44.90;102755.84;5389671;26;20044;-80
2024/04/12 03:52:12;;;;;;;3.38;1.92;;;;;;;14.80;45.04;102748.69;5363567;26;20406;-80
2024/04/12 03:54:45;;;;;;;3.33;2.00;;;;;;;14.81;45.12;102748.56;5390810;26;20027;-80
2024/04/12 03:57:13;;;;;;;3.50;1.83;;;;;;;14.77;45.44;102742.41;5379667;26;20078;-79
2024/04/12 03:59:44;;;;;;;3.42;1.90;;;;;;;14.80;45.17;102741.28;5400945;26;20015;-81
2024/04/12 04:02:18;;;;;;;4.32;2.10;;;;;;;14.79;45.71;102746.91;5352853;26;20013;-82
2024/04/12 04:04:47;;;;;;;3.53;2.13;;;;;;;14.79;45.62;102735.88;5401557;26;20008;-81
2024/04/12 04:07:19;;;;;;;3.80;2.08;;;;;;;14.79;45.88;102730.38;5386054;26;20030;-81
2024/04/12 04:09:47;;;;;;;4.30;2.30;;;;;;;14.75;45.64;102725.13;5379178;26;20021;-81
2024/04/12 04:12:17;;;;;;;3.83;2.33;;;;;;;14.76;45.55;102731.50;5345848;26;20458;-83
2024/04/12 04:14:48;;;;;;;4.70;2.55;;;;;;;14.75;46.01;102733.38;5362693;26;20035;-81
2024/04/12 04:17:29;;;;;;;5.72;2.30;;;;;;;14.78;46.46;102726.72;5362149;26;20040;-83
2024/04/12 04:20:05;;;;;;;4.85;2.58;;;;;;;14.76;46.06;102726.84;5408637;26;20084;-82
2024/04/12 04:22:49;;;;;;;5.03;2.63;;;;;;;14.75;45.94;102736.13;5358808;26;20004;-81
2024/04/12 04:25:19;;;;;;;6.28;3.10;;;;;;;14.75;46.32;102733.38;5371344;26;20010;-81
2024/04/12 04:27:49;;;;;;;5.18;2.80;;;;;;;14.74;46.17;102733.50;5374852;26;20007;-81
2024/04/12 04:30:18;;;;;;;4.82;2.55;;;;;;;14.74;46.07;102742.66;5360370;26;20000;-82
2024/04/12 04:32:52;;;;;;;4.10;2.60;;;;;;;14.76;46.50;102759.06;5389557;26;20087;-80
2024/04/12 04:35:19;;;;;;;4.43;2.38;;;;;;;14.73;46.18;102751.91;5355314;26;20117;-81
2024/04/12 04:37:52;;;;;;;5.15;2.50;;;;;;;14.73;46.46;102748.25;5349935;26;20023;-81
2024/04/12 04:40:19;;;;;;;6.72;2.75;;;;;;;14.70;46.70;102749.38;5352702;26;20005;-81
2024/04/12 04:42:50;;;;;;;4.88;2.60;;;;;;;14.73;46.62;102753.78;5349330;26;20013;-83
2024/04/12 04:45:18;;;;;;;4.82;2.58;;;;;;;14.72;46.62;102744.63;5342533;26;20003;-82
2024/04/12 04:47:52;;;;;;;4.85;2.42;;;;;;;14.71;46.93;102740.09;5373732;26;20451;-83
2024/04/12 04:50:20;;;;;;;4.68;2.40;;;;;;;14.68;46.80;102742.22;5370120;26;20008;-82
2024/04/12 04:52:50;;;;;;;4.43;2.67;;;;;;;14.68;46.52;102734.81;5354021;26;20018;-83
2024/04/12 04:55:19;;;;;;;4.35;2.45;;;;;;;14.71;46.92;102739.22;5351164;26;20015;-82
2024/04/12 04:57:54;;;;;;;4.25;2.55;;;;;;;14.68;46.62;102742.22;5340567;26;20344;-83
2024/04/12 05:00:24;;;;;;;5.07;2.67;;;;;;;14.67;46.79;102745.97;5358757;26;20019;-82
2024/04/12 05:02:57;;;;;;;4.97;2.90;;;;;;;14.69;47.13;102746.72;5352353;26;20011;-82
2024/04/12 05:05:27;;;;;;;5.47;2.92;;;;;;;14.64;46.98;102751.72;5386481;26;20032;-83
2024/04/12 05:07:59;;;;;;;3.83;2.40;;;;;;;14.66;47.07;102746.97;5340727;26;20070;-82
2024/04/12 05:10:33;;;;;;;4.13;2.60;;;;;;;14.65;46.92;102743.34;5378418;26;20019;-84
2024/04/12 05:13:06;;;;;;;4.63;2.50;;;;;;;14.65;46.70;102746.09;5372387;26;20004;-83
2024/04/12 05:18:27;;;;;;;5.37;2.43;;;;;;;14.64;47.48;102743.44;5343637;26;20015;-83
2024/04/12 05:20:57;;;;;;;4.15;2.28;;;;;;;14.62;46.98;102740.78;5348855;26;20019;-82
2024/04/12 05:23:28;;;;;;;5.00;2.88;;;;;;;14.64;46.87;102738.81;5350455;26;20541;-83
2024/04/12 05:26:01;;;;;;;4.68;2.60;;;;;;;14.61;46.88;102729.88;5378494;26;20348;-83
2024/04/12 05:28:31;;;;;;;4.57;2.45;;;;;;;14.62;46.71;102737.16;5378758;26;20012;-83
2024/04/12 05:30:59;;;;;;;4.43;2.33;;;;;;;14.61;46.95;102736.28;5350557;26;20080;-81
2024/04/12 05:33:33;;;;;;;4.25;2.45;;;;;;;14.63;47.41;102739.81;5372854;26;20008;-81
2024/04/12 05:36:01;;;;;;;4.90;2.60;;;;;;;14.61;47.02;102735.41;5376973;26;20036;-83
2024/04/12 05:38:34;;;;;;;3.72;2.53;;;;;;;14.61;47.03;102730.75;5343525;26;20636;-82
2024/04/12 05:41:04;;;;;;;5.22;2.47;;;;;;;14.60;47.24;102740.03;5376683;26;20004;-82
2024/04/12 05:43:38;;;;;;;5.60;2.75;;;;;;;14.62;47.14;102745.44;5354430;26;20000;-83
2024/04/12 05:46:05;;;;;;;3.72;2.47;;;;;;;14.64;47.07;102749.84;5357424;26;20012;-82
2024/04/12 05:48:40;;;;;;;4.10;2.42;;;;;;;14.65;47.47;102751.59;5345970;26;20020;-82
2024/04/12 05:51:09;;;;;;;4.05;2.38;;;;;;;14.62;47.21;102748.19;5368034;26;20008;-82
2024/04/12 05:53:42;;;;;;;4.18;2.40;;;;;;;14.64;47.06;102748.97;5351837;26;20023;-81
2024/04/12 05:56:20;;;;;;;3.78;2.50;;;;;;;14.61;47.21;102750.06;5372492;26;20091;-83
2024/04/12 05:58:51;;;;;;;4.55;2.47;;;;;;;14.64;47.39;102746.19;5373040;26;20012;-83
2024/04/12 06:01:20;;;;;;;5.45;2.42;;;;;;;14.61;47.40;102739.03;5372806;26;20696;-83
2024/04/12 06:03:54;;;;;;;4.30;2.20;;;;;;;14.66;47.93;102747.84;5346261;26;20008;-82
2024/04/12 06:06:23;;;;;;;4.32;2.60;;;;;;;14.65;47.45;102743.34;5345340;26;20004;-83
2024/04/12 06:08:53;;;;;;;4.00;2.72;;;;;;;14.64;47.46;102747.09;5373413;26;20012;-82
2024/04/12 06:11:22;;;;;;;4.38;2.58;;;;;;;14.65;47.58;102747.97;5352282;26;20007;-81
2024/04/12 06:13:53;;;;;;;3.58;2.50;;;;;;;14.67;47.36;102751.50;5347585;26;20074;-82
2024/04/12 06:16:22;;;;;;;;;;;;;;;14.38;48.30;102750.84;5349847;26;20008;-82
2024/04/12 06:18:58;;;;;;;3.95;2.10;;;;;;;14.65;47.71;102748.84;5382291;26;19925;-82
2024/04/12 06:21:30;;;;;;;4.93;2.45;;;;;;;14.65;47.38;102745.22;5380991;26;20016;-82
2024/04/12 06:24:00;;;;;;;;;;;;;;;14.38;48.25;102737.09;5360312;26;20001;-81
2024/04/12 06:26:28;;;;;;;3.97;2.28;;;;;;;14.61;47.30;102738.16;5371700;26;19937;-83
2024/04/12 06:29:05;;;;;;;4.28;2.67;;;;;;;14.67;47.51;102743.22;5362217;26;20010;-81
2024/04/12 06:31:35;;;;;;;4.05;2.33;;;;;;;14.68;47.30;102747.75;5350497;26;20001;-82
2024/04/12 06:34:17;;;;;;;4.05;2.38;;;;;;;14.71;47.58;102736.47;5383340;26;20015;-82
2024/04/12 06:36:45;;;;;;;3.78;2.40;;;;;;;14.67;47.49;102732.19;5359186;26;19997;-83
2024/04/12 06:39:17;;;;;;;4.05;2.42;;;;;;;14.69;47.53;102741.22;5351693;26;20016;-82
2024/04/12 06:41:45;;;;;;;4.57;2.53;;;;;;;14.67;47.95;102738.59;5383036;26;20016;-82
2024/04/12 06:44:19;;;;;;;3.80;2.40;;;;;;;14.67;47.25;102743.22;5386818;26;20003;-82
2024/04/12 06:46:50;;;;;;;4.30;2.35;;;;;;;14.70;48.04;102749.38;5390682;26;20005;-82
2024/04/12 06:49:26;;;;;;;5.25;2.40;;;;;;;14.71;48.39;102745.63;5339231;26;20009;-81
2024/04/12 06:52:09;;;;;;;4.05;2.50;;;;;;;14.68;47.62;102745.84;5361314;26;21086;-81
2024/04/12 06:54:42;;;;;;;3.60;2.13;;;;;;;14.67;47.86;102751.50;5374021;26;20012;-83
2024/04/12 06:57:17;;;;;;;4.13;2.38;;;;;;;14.70;47.81;102740.22;5382091;26;20011;-82
2024/04/12 06:59:53;;;;;;;4.60;2.20;;;;;;;14.72;47.63;102736.38;5344789;26;20056;-82
2024/04/12 07:02:24;;;;;;;3.30;2.10;;;;;;;14.72;47.89;102733.59;5372437;26;20000;-82
2024/04/12 07:04:59;;;;;;;3.70;2.30;;;;;;;14.73;48.01;102727.09;5364842;26;20401;-82
2024/04/12 07:07:28;;;;;;;3.45;1.92;;;;;;;14.75;47.77;102729.75;5386247;26;20054;-82
2024/04/12 07:10:09;;;;;;;4.10;2.00;;;;;;;14.76;47.89;102731.50;5336578;26;20023;-82
2024/04/12 07:12:38;;;;;;;5.30;2.03;;;;;;;14.76;47.93;102737.03;5345599;26;20000;-82
2024/04/12 07:15:09;;;;;;;3.88;2.10;;;;;;;14.77;48.00;102730.47;5358717;26;20000;-83
2024/04/12 07:17:39;;;;;;;3.13;1.92;;;;;;;14.81;48.26;102748.56;5342141;26;20094;-83
2024/04/12 07:20:14;;;;;;;4.75;2.15;;;;;;;14.81;48.10;102745.81;5338796;26;20008;-83
2024/04/12 07:22:41;;;;;;;3.85;2.05;;;;;;;14.82;47.73;102746.69;5375393;26;20016;-82
2024/04/12 07:25:15;;;;;;;3.22;2.03;;;;;;;14.83;47.63;102745.69;5350550;26;20026;-82
2024/04/12 07:27:43;;;;;;;4.00;2.08;;;;;;;14.84;48.06;102750.22;5373279;26;20087;-81
2024/04/12 07:30:20;;;;;;;4.85;2.00;;;;;;;14.84;47.91;102750.22;5368806;26;20602;-83
2024/04/12 07:32:47;;;;;;;3.85;1.95;;;;;;;14.87;47.93;102752.72;5369737;26;20486;-83
2024/04/12 07:35:29;;;;;;;3.65;2.30;;;;;;;14.92;48.20;102753.28;5347775;26;20016;-81
2024/04/12 07:37:59;;;;;;;4.13;2.10;;;;;;;14.89;48.05;102753.50;5356155;26;20023;-83
2024/04/12 07:40:34;;;;;;;3.83;2.20;;;;;;;14.93;48.15;102752.28;5348570;26;20054;-83
2024/04/12 07:43:08;;;;;;;4.70;2.30;;;;;;;14.95;48.24;102748.38;5349925;26;19996;-82
2024/04/12 07:45:41;;;;;;;4.70;2.28;;;;;;;14.99;48.06;102754.56;5370750;26;20015;-82
2024/04/12 07:48:11;;;;;;;4.25;2.40;;;;;;;15.00;48.12;102753.56;5364320;26;20040;-81
2024/04/12 07:50:46;;;;;;;4.40;2.20;;;;;;;15.03;48.06;102745.03;5356705;26;20004;-82
2024/04/12 07:53:21;;;;;;;4.43;2.15;;;;;;;15.05;48.15;102754.09;5349170;26;20008;-83
2024/04/12 07:55:58;;;;;;;3.42;2.20;;;;;;;15.08;48.30;102745.59;5351637;26;20426;-83
2024/04/12 07:58:28;;;;;;;3.65;2.55;;;;;;;15.12;48.27;102747.97;5357891;26;20004;-83
2024/04/12 08:01:09;;;;;;;3.65;2.17;;;;;;;15.14;48.02;102740.47;5358623;26;20459;-82
2024/04/12 08:03:37;;;;;;;4.85;2.30;;;;;;;15.17;48.10;102758.66;5350333;26;20005;-82
2024/04/12 08:06:36;;;;;;;3.83;2.20;;;;;;;15.23;48.10;102758.19;5393112;26;20000;-83
2024/04/12 08:09:05;;;;;;;4.38;2.00;;;;;;;15.22;47.77;102756.41;5394515;26;20085;-82
2024/04/12 08:11:41;;;;;;;4.95;2.53;;;;;;;15.26;47.92;102762.59;5352092;26;20004;-83
2024/04/12 08:14:19;;;;;;;3.70;2.08;;;;;;;15.27;47.66;102762.44;5353179;26;20008;-83
2024/04/12 08:16:52;;;;;;;3.58;2.10;;;;;;;15.28;47.74;102755.06;5358191;26;20009;-82
2024/04/12 08:19:22;;;;;;;3.88;2.38;;;;;;;15.31;48.10;102758.47;5349232;26;20012;-83
2024/04/12 08:21:55;;;;;;;3.97;2.20;;;;;;;15.38;47.91;102757.03;5355631;26;20015;-83
2024/04/12 08:24:22;;;;;;;3.78;2.35;;;;;;;15.37;47.84;102755.25;5392225;26;20346;-83
2024/04/12 08:26:54;;;;;;;4.32;2.70;;;;;;;15.40;47.71;102760.53;5359078;26;20015;-83
2024/04/12 08:29:23;;;;;;;3.88;2.60;;;;;;;15.45;47.72;102757.41;5385984;26;20048;-83
2024/04/12 08:31:59;;;;;;;4.68;2.60;;;;;;;15.48;47.87;102760.81;5360996;26;20000;-82
2024/04/12 08:34:28;;;;;;;4.10;2.67;;;;;;;15.51;47.68;102760.56;5397253;26;20000;-83
2024/04/12 08:37:02;;;;;;;4.13;2.65;;;;;;;15.56;48.10;102768.50;5363653;26;20007;-83
2024/04/12 08:39:30;;;;;;;4.78;2.65;;;;;;;15.57;47.77;102759.22;5387078;26;20035;-83
2024/04/12 08:42:04;;;;;;;4.43;2.55;;;;;;;15.62;47.66;102761.59;5359206;26;20180;-83
2024/04/12 08:44:35;;;;;;;5.03;2.60;;;;;;;15.62;47.59;102762.47;5401462;26;20023;-83
2024/04/12 08:47:30;;;;;;;4.72;2.70;;;;;;;15.67;47.90;102759.38;5366396;26;20008;-83
2024/04/12 08:50:03;;;;;;;4.63;2.28;;;;;;;15.69;47.77;102768.38;5367699;26;20012;-83
2024/04/12 08:52:43;;;;;;;5.07;2.88;;;;;;;15.75;47.86;102759.66;5357622;26;20020;-82
2024/04/12 08:55:13;;;;;;;5.00;2.50;;;;;;;15.75;47.52;102762.41;5366741;26;20014;-83
2024/04/12 08:57:47;;;;;;;5.13;2.70;;;;;;;15.77;47.48;102765.91;5353359;26;20004;-81
2024/04/12 09:00:18;;;;;;;5.05;2.75;;;;;;;15.79;47.56;102764.78;5325573;26;20381;-83
2024/04/12 09:02:51;;;;;;;4.25;2.53;;;;;;;15.85;47.45;102764.28;5351634;26;20028;-82
2024/04/12 09:05:22;;;;;;;6.37;2.73;;;;;;;15.85;47.75;102763.41;5386185;26;20008;-81
2024/04/12 09:07:58;;;;;;;4.47;2.40;;;;;;;15.91;47.82;102764.81;5350961;26;20018;-83
2024/04/12 09:10:34;;;;;;;4.53;2.40;;;;;;;15.91;47.39;102768.47;5356649;26;20008;-82
2024/04/12 09:13:08;;;;;;;5.57;2.75;;;;;;;15.93;47.51;102758.16;5343144;26;20037;-83
2024/04/12 09:15:35;;;;;;;5.60;2.60;;;;;;;15.95;47.57;102755.28;5357865;26;20014;-82
2024/04/12 09:18:13;;;;;;;4.75;2.50;;;;;;;16.00;47.60;102762.16;5365773;26;20007;-83
2024/04/12 09:20:44;;;;;;;4.55;2.20;;;;;;;16.02;47.18;102754.66;5399553;26;20614;-83
2024/04/12 09:23:19;;;;;;;4.80;2.20;;;;;;;16.05;47.38;102748.88;5388360;26;20409;-83
2024/04/12 09:25:54;;;;;;;4.10;2.40;;;;;;;16.08;47.43;102754.16;5350460;26;20008;-82
2024/04/12 09:28:27;;;;;;;4.63;2.38;;;;;;;16.11;47.27;102761.31;5352233;26;20055;-82
2024/04/12 09:33:50;;;;;;;4.75;2.30;;;;;;;16.15;47.30;102758.19;5356706;26;20548;-83
2024/04/12 09:36:38;;;;;;;4.68;2.25;;;;;;;16.22;47.37;102753.06;5341979;26;20008;-83
2024/04/12 09:39:14;;;;;;;3.72;2.20;;;;;;;16.25;47.31;102753.69;5351003;26;20016;-83
2024/04/12 09:41:53;;;;;;;3.95;2.20;;;;;;;16.30;47.31;102757.97;5374486;26;20008;-83
2024/04/12 09:44:27;;;;;;;4.03;1.95;;;;;;;16.33;47.53;102752.19;5355082;26;20000;-83
2024/04/12 10:37:36;;;;;;;4.88;2.22;;;;;;;17.18;46.62;102750.50;5384159;26;20054;-84
2024/04/12 10:40:09;;;;;;;5.00;2.30;;;;;;;17.21;46.48;102747.50;5352033;26;20004;-83
2024/04/12 10:42:42;;;;;;;4.78;2.28;;;;;;;17.28;46.20;102745.94;5382447;26;20722;-82
2024/04/12 10:45:15;;;;;;;;;;;;;;;17.00;46.62;102744.66;5361596;26;20019;-83
2024/04/12 10:47:47;;;;;;;4.22;2.00;;;;;;;17.30;46.04;102750.34;5370068;26;19933;-84
2024/04/12 10:50:15;;;;;;;5.72;2.33;;;;;;;17.42;46.19;102744.72;5358239;26;19999;-83
2024/04/12 10:52:45;;;;;;;3.83;1.77;;;;;;;17.45;45.88;102748.13;5358794;26;20044;-83
2024/04/12 10:55:16;;;;;;;4.30;2.00;;;;;;;17.48;45.87;102736.81;5366070;26;20008;-83
2024/04/12 10:57:47;;;;;;;4.60;1.95;;;;;;;17.54;45.53;102740.91;5359491;26;20019;-84
2024/04/12 11:00:28;;;;;;;4.23;1.90;;;;;;;17.56;45.33;102736.13;5346883;26;20520;-84
2024/04/12 11:02:59;;;;;;;3.72;1.83;;;;;;;17.61;45.56;102736.59;5353945;26;20344;-84
2024/04/12 11:05:44;;;;;;;3.00;1.80;;;;;;;17.65;45.50;102732.50;5389097;26;20029;-84
2024/04/12 11:08:15;;;;;;;4.07;1.70;;;;;;;17.69;45.57;102731.25;5362595;26;20015;-84
2024/04/12 11:10:55;;;;;;;3.20;1.60;;;;;;;17.74;45.08;102732.63;5381569;26;20361;-84
2024/04/12 11:13:35;;;;;;;2.67;1.67;;;;;;;17.80;45.05;102725.69;5346756;26;20544;-85
2024/04/12 11:32:55;;;;;;;3.25;1.35;;;;;;;18.13;44.48;102688.50;5343753;26;20012;-84
2024/04/12 11:35:28;;;;;;;3.25;1.30;;;;;;;18.17;44.41;102681.66;5353235;26;20001;-84
2024/04/12 11:37:58;;;;;;;2.28;1.60;;;;;;;18.21;44.44;102685.91;5392768;26;20062;-84
2024/04/12 11:40:26;;;;;;;3.55;1.67;;;;;;;18.27;44.32;102684.47;5394820;26;20014;-84
2024/04/12 11:42:56;;;;;;;2.83;1.33;;;;;;;18.31;44.26;102677.63;5353057;26;20484;-83
2024/04/12 11:45:25;;;;;;;3.33;1.35;;;;;;;18.34;44.13;102669.91;5374139;26;20003;-84
2024/04/12 11:47:58;;;;;;;3.33;1.40;;;;;;;18.43;43.72;102668.19;5354715;26;20456;-83
2024/04/12 11:50:26;;;;;;;2.55;1.30;;;;;;;18.43;43.77;102668.19;5349685;26;20023;-82
2024/04/12 11:52:57;;;;;;;3.42;1.35;;;;;;;18.48;44.02;102663.97;5350256;26;20050;-82
2024/04/12 11:55:26;;;;;;;3.17;1.30;;;;;;;18.51;43.87;102673.91;5352926;26;20015;-83
2024/04/12 11:57:58;;;;;;;2.80;1.30;;;;;;;18.55;43.68;102671.75;5355151;26;20065;-83
2024/04/12 12:00:27;;;;;;;1.77;1.08;;;;;;;18.59;43.35;102668.53;5371937;26;20565;-83
2024/04/12 12:03:01;;;;;;;2.50;1.35;;;;;;;18.65;43.04;102669.84;5382684;26;20356;-82
2024/04/12 12:05:28;;;;;;;3.72;1.40;;;;;;;18.65;43.19;102664.31;5347720;26;20008;-83
2024/04/12 12:07:59;;;;;;;2.40;1.13;;;;;;;18.70;43.15;102659.22;5384441;26;20019;-83
2024/04/12 12:10:26;;;;;;;2.30;1.33;;;;;;;18.73;43.03;102651.47;5362813;26;20004;-82
2024/04/12 12:12:56;;;;;;;3.00;1.27;;;;;;;18.79;42.81;102656.47;5346041;26;20019;-83
2024/04/12 12:15:26;;;;;;;2.83;1.38;;;;;;;18.83;42.61;102657.03;5364201;26;20085;-82
2024/04/12 12:17:56;;;;;;;2.30;1.20;;;;;;;18.88;42.66;102650.00;5364117;26;20080;-83
2024/04/12 12:20:30;;;;;;;1.80;1.20;;;;;;;18.96;42.60;102645.66;5343033;26;20063;-80
2024/04/12 12:22:58;;;;;;;2.03;1.02;;;;;;;19.00;42.81;102650.75;5376401;26;20020;-81
2024/04/12 12:25:29;;;;;;;2.88;1.05;;;;;;;19.09;42.71;102662.88;5334182;26;20021;-82
2024/04/12 12:27:56;;;;;;;1.92;0.90;;;;;;;19.17;42.61;102654.69;5345593;26;20024;-81
2024/04/12 12:30:28;;;;;;;1.75;1.00;;;;;;;19.25;42.34;102647.41;5374998;26;20032;-82
2024/04/12 12:32:59;;;;;;;1.08;0.82;;;;;;;19.32;42.25;102644.03;5387650;26;20012;-82
2024/04/12 12:35:35;;;;;;;2.83;1.17;;;;;;;19.47;41.95;102628.66;5376804;26;20004;-81
2024/04/12 12:38:02;;;;;;;3.40;1.35;;;;;;;19.52;41.81;102637.41;5366341;26;20384;-81
2024/04/12 12:40:35;;;;;;;3.00;1.17;;;;;;;19.61;41.88;102628.19;5372982;26;20007;-82
2024/04/12 12:43:05;;;;;;;2.80;1.10;;;;;;;19.71;41.35;102631.78;5353119;26;20023;-81
2024/04/12 12:45:35;;;;;;;1.98;1.10;;;;;;;19.80;41.13;102628.09;5402878;26;20004;-82
2024/04/12 12:48:02;;;;;;;1.73;1.00;;;;;;;19.86;40.79;102624.72;5350264;26;20016;-83
2024/04/12 12:50:35;;;;;;;4.18;1.73;;;;;;;19.93;40.21;102614.78;5375826;26;20011;-82
2024/04/12 12:53:09;;;;;;;3.03;1.30;;;;;;;19.95;40.38;102609.91;5355467;26;20011;-81
2024/04/12 12:55:39;;;;;;;1.88;1.08;;;;;;;20.00;40.47;102612.25;5334436;26;20007;-82
2024/04/12 12:58:09;;;;;;;3.08;1.30;;;;;;;20.05;40.01;102618.22;5364661;26;20465;-81
2024/04/12 13:00:44;;;;;;;3.55;1.40;;;;;;;20.09;39.48;102616.91;5331945;26;20037;-82
2024/04/12 13:03:17;;;;;;;2.78;1.38;;;;;;;20.09;39.09;102614.13;5351436;26;20004;-82